Terminal Aerodrome Forecast
Issued by NWS

Home | Current Version | Previous Version | Text Only | Print | Product List | Glossary On
Versions: 1 2 3 4 5 6 7 8 9 10 11 12 13 14 15 16 17 18 19 20 21 22 23 24 25 26 27 28 29 30 31 32
000
FTUS45 KGJT 010531
TAFDRO
TAF
KDRO 010531Z 0106/0206 02003KT P6SM SCT070 BKN110
     FM011300 08005KT P6SM SCT080 BKN120
     FM011800 04006KT P6SM VCTS SCT070CB BKN100
     FM012100 02008KT P6SM -SHRA VCTS BKN070CB OVC120
      TEMPO 0121/0201 VRB15G25KT TSRA SCT050CB BKN070
     FM020300 03005KT P6SM VCSH SCT060 OVC080=

USA.gov is the U.S. government's official web portal to all federal, state and local government web resources and services.